Time;durP1;ratioP1;P1;durP2;ratioP2;P2;SDS_P1;SDS_P2;PMS_P1;PMS_P2;Temp;Humidity;BMP_temperature;BMP_pressure;BME280_temperature;BME280_humidity;BME280_pressure;Samples;Min_cycle;Max_cycle;Signal;HPM_P1;HPM_P2
2023/03/11 00:01:58;;;;;;;;;;;;;;;7.31;100.00;100530.06;4986787;28;19972;-49
2023/03/11 00:04:24;;;;;;;;;;;;;;;7.34;100.00;100531.50;4991764;28;20373;-52
2023/03/11 00:06:49;;;;;;;;;;;;;;;7.44;100.00;100542.72;4982923;28;19922;-50
2023/03/11 00:09:15;;;;;;;;;;;;;;;7.38;100.00;100535.44;4986886;28;19919;-49
2023/03/11 00:11:40;;;;;;;;;;;;;;;7.03;100.00;100542.09;4988845;28;20443;-52
2023/03/11 00:14:05;;;;;;;;;;;;;;;7.13;100.00;100535.69;4988367;28;19910;-55
2023/03/11 00:16:31;;;;;;;;;;;;;;;7.40;100.00;100544.91;4990096;28;19921;-52
2023/03/11 00:18:57;;;;;;;;;;;;;;;7.15;100.00;100546.97;4985538;28;19925;-50
2023/03/11 00:21:22;;;;;;;;;;;;;;;7.14;100.00;100550.63;4985580;28;19914;-47
2023/03/11 00:23:47;;;;;;;;;;;;;;;7.16;100.00;100551.31;4985647;28;19941;-50
2023/03/11 00:26:13;;;;;;;;;;;;;;;7.09;100.00;100542.38;4986217;28;19914;-47
2023/03/11 00:28:38;;;;;;;;;;;;;;;7.16;100.00;100552.13;4986826;28;20396;-50
2023/03/11 00:31:04;;;;;;;;;;;;;;;7.27;100.00;100558.84;4967471;28;19929;-51
2023/03/11 00:33:29;;;;;;;;;;;;;;;7.38;100.00;100567.38;4976944;28;19989;-48
2023/03/11 00:35:55;;;;;;;;;;;;;;;7.15;100.00;100568.25;4972308;28;19918;-51
2023/03/11 00:38:20;;;;;;;;;;;;;;;6.86;100.00;100570.66;4979105;28;19914;-50
2023/03/11 00:40:46;;;;;;;;;;;;;;;7.25;100.00;100571.50;4989295;28;19939;-50
2023/03/11 00:43:12;;;;;;;;;;;;;;;7.24;100.00;100576.97;4988057;28;20013;-48
2023/03/11 00:45:37;;;;;;;;;;;;;;;7.10;100.00;100575.94;4986665;28;19918;-47
2023/03/11 00:48:03;;;;;;;;;;;;;;;6.77;100.00;100587.63;4977717;28;19977;-52
2023/03/11 00:50:30;;;;;;;;;;;;;;;6.73;100.00;100583.69;4980753;28;19914;-52
2023/03/11 00:52:56;;;;;;;;;;;;;;;6.72;100.00;100590.84;4985982;28;19977;-51
2023/03/11 00:55:25;;;;;;;;;;;;;;;7.08;100.00;100592.09;4994760;28;19970;-51
2023/03/11 00:57:52;;;;;;;;;;;;;;;6.97;100.00;100595.16;4984447;28;19914;-54
2023/03/11 01:00:19;;;;;;;;;;;;;;;7.05;100.00;100591.59;4974193;28;19921;-51
2023/03/11 01:02:45;;;;;;;;;;;;;;;7.02;100.00;100590.13;5000172;28;19921;-53
2023/03/11 01:05:10;;;;;;;;;;;;;;;6.94;100.00;100598.16;4984102;28;19914;-51
2023/03/11 01:07:36;;;;;;;;;;;;;;;6.89;100.00;100590.72;4990927;28;19963;-50
2023/03/11 01:10:03;;;;;;;;;;;;;;;6.96;100.00;100599.66;4987370;28;19914;-48
2023/03/11 01:12:28;;;;;;;;;;;;;;;6.96;100.00;100598.81;4976142;28;19918;-49
2023/03/11 01:14:54;;;;;;;;;;;;;;;6.83;100.00;100602.06;4986380;28;19915;-51
2023/03/11 01:17:21;;;;;;;;;;;;;;;6.89;100.00;100606.66;4983870;28;19914;-52
2023/03/11 01:19:47;;;;;;;;;;;;;;;7.02;100.00;100620.22;4971882;28;19914;-51
2023/03/11 01:22:14;;;;;;;;;;;;;;;6.91;100.00;100614.47;4989083;28;19914;-50
2023/03/11 01:24:40;;;;;;;;;;;;;;;7.00;100.00;100624.03;4986840;28;19921;-53
2023/03/11 01:27:05;;;;;;;;;;;;;;;6.90;100.00;100626.94;4984205;28;19914;-51
2023/03/11 01:29:31;;;;;;;;;;;;;;;6.94;100.00;100630.91;4990044;28;19998;-50
2023/03/11 01:31:58;;;;;;;;;;;;;;;7.01;100.00;100626.53;4995836;28;19933;-51
2023/03/11 01:34:24;;;;;;;;;;;;;;;6.89;100.00;100626.13;4973750;28;19914;-50
2023/03/11 01:36:50;;;;;;;;;;;;;;;6.76;100.00;100643.66;4986706;28;19926;-48
2023/03/11 01:39:15;;;;;;;;;;;;;;;6.64;100.00;100638.72;4989856;28;19922;-47
2023/03/11 01:41:41;;;;;;;;;;;;;;;6.70;100.00;100635.38;5001169;28;19918;-50
2023/03/11 01:44:10;;;;;;;;;;;;;;;6.73;100.00;100640.34;4975650;28;19975;-50
2023/03/11 01:46:58;;;;;;;;;;;;;;;6.76;100.00;100638.34;4982806;28;19925;-50
2023/03/11 01:49:30;;;;;;;;;;;;;;;6.74;100.00;100642.00;5015433;28;20019;-51
2023/03/11 01:51:59;;;;;;;;;;;;;;;6.31;98.74;100633.56;4989306;28;19918;-50
2023/03/11 01:54:29;;;;;;;;;;;;;;;6.63;100.00;100637.06;4988251;28;19914;-48
2023/03/11 01:56:55;;;;;;;;;;;;;;;6.39;100.00;100643.34;4985601;28;19914;-50
2023/03/11 01:59:26;;;;;;;;;;;;;;;6.57;100.00;100630.63;4999187;28;20380;-50
2023/03/11 02:02:11;;;;;;;;;;;;;;;6.53;100.00;100639.13;4984437;28;20740;-49
2023/03/11 02:04:37;;;;;;;;;;;;;;;6.45;100.00;100650.59;4985910;28;19918;-49
2023/03/11 02:07:03;;;;;;;;;;;;;;;6.53;100.00;100645.25;4989122;28;19981;-50
2023/03/11 02:09:29;;;;;;;;;;;;;;;6.48;100.00;100636.97;4988860;28;19933;-50
2023/03/11 02:11:56;;;;;;;;;;;;;;;6.53;100.00;100639.13;4994038;28;19921;-50
2023/03/11 02:14:24;;;;;;;;;;;;;;;6.54;100.00;100638.13;4981025;28;20001;-52
2023/03/11 02:16:51;;;;;;;;;;;;;;;6.37;100.00;100638.19;4984040;28;19944;-51
2023/03/11 02:19:25;;;;;;;;;;;;;;;6.41;100.00;100644.78;4992756;28;19914;-48
2023/03/11 02:21:51;;;;;;;;;;;;;;;6.38;100.00;100647.81;4988315;28;19921;-53
2023/03/11 02:24:29;;;;;;;;;;;;;;;6.28;100.00;100658.63;4990320;28;19918;-51
2023/03/11 02:26:57;;;;;;;;;;;;;;;6.47;100.00;100650.44;4975724;28;19914;-52
2023/03/11 02:29:25;;;;;;;;;;;;;;;6.35;100.00;100648.16;4985647;28;19918;-49
2023/03/11 02:31:51;;;;;;;;;;;;;;;6.56;100.00;100654.72;4975686;28;19914;-51
2023/03/11 02:34:22;;;;;;;;;;;;;;;6.38;100.00;100655.78;4975291;28;19914;-53
2023/03/11 02:36:48;;;;;;;;;;;;;;;6.20;100.00;100649.84;4989113;28;19933;-48
2023/03/11 02:39:14;;;;;;;;;;;;;;;6.37;100.00;100653.31;4982501;28;19949;-49
2023/03/11 02:41:42;;;;;;;;;;;;;;;6.41;100.00;100652.75;4992237;28;19921;-49
2023/03/11 02:44:10;;;;;;;;;;;;;;;6.45;100.00;100654.06;4987327;28;19914;-50
2023/03/11 02:46:37;;;;;;;;;;;;;;;6.36;100.00;100652.47;5010337;28;19946;-51
2023/03/11 02:49:03;;;;;;;;;;;;;;;6.37;100.00;100651.47;4988513;28;19973;-48
2023/03/11 02:51:28;;;;;;;;;;;;;;;6.48;100.00;100649.44;4992615;28;19929;-47
2023/03/11 02:53:55;;;;;;;;;;;;;;;6.44;100.00;100651.59;4989226;28;19914;-52
2023/03/11 02:56:21;;;;;;;;;;;;;;;6.45;100.00;100647.94;4991272;28;19922;-51
2023/03/11 02:58:47;;;;;;;;;;;;;;;6.47;100.00;100650.44;4970492;28;19918;-51
2023/03/11 03:01:12;;;;;;;;;;;;;;;6.34;100.00;100648.31;4989098;28;19914;-49
2023/03/11 03:03:41;;;;;;;;;;;;;;;6.59;100.00;100654.34;5007782;28;20340;-52
2023/03/11 03:06:06;;;;;;;;;;;;;;;6.46;100.00;100654.91;4988319;28;19957;-49
2023/03/11 03:08:31;;;;;;;;;;;;;;;6.54;100.00;100654.06;4987653;28;19902;-50
2023/03/11 03:10:58;;;;;;;;;;;;;;;6.41;100.00;100651.94;4995948;28;19921;-48
2023/03/11 03:13:25;;;;;;;;;;;;;;;6.36;100.00;100659.63;4968102;28;20022;-48
2023/03/11 03:15:50;;;;;;;;;;;;;;;6.34;100.00;100662.44;4981490;28;19953;-50
2023/03/11 03:18:16;;;;;;;;;;;;;;;6.44;100.00;100665.69;4989243;28;19915;-52
2023/03/11 03:20:42;;;;;;;;;;;;;;;6.34;100.00;100675.72;4977151;28;19936;-50
2023/03/11 03:23:08;;;;;;;;;;;;;;;6.50;100.00;100681.97;4993443;28;19948;-49
2023/03/11 03:25:34;;;;;;;;;;;;;;;6.38;100.00;100677.03;4998708;28;19985;-53
2023/03/11 03:28:04;;;;;;;;;;;;;;;6.26;100.00;100681.88;5004228;28;19918;-51
2023/03/11 03:30:32;;;;;;;;;;;;;;;6.34;100.00;100693.47;4988210;28;19946;-49
2023/03/11 03:32:57;;;;;;;;;;;;;;;6.17;100.00;100694.34;4997242;28;19921;-49
2023/03/11 03:35:23;;;;;;;;;;;;;;;6.08;100.00;100695.38;4984302;28;19914;-53
2023/03/11 03:38:02;;;;;;;;;;;;;;;6.07;100.00;100700.84;4966976;28;19924;-50
2023/03/11 03:40:28;;;;;;;;;;;;;;;6.16;100.00;100703.31;4972475;28;19914;-51
2023/03/11 03:42:56;;;;;;;;;;;;;;;6.08;100.00;100711.31;4963297;28;19978;-52
2023/03/11 03:45:22;;;;;;;;;;;;;;;6.24;100.00;100713.09;4966104;28;19914;-52
2023/03/11 03:47:50;;;;;;;;;;;;;;;6.39;100.00;100715.88;4962560;28;19919;-51
2023/03/11 03:50:18;;;;;;;;;;;;;;;6.15;100.00;100714.94;4968919;28;19915;-50
2023/03/11 03:52:46;;;;;;;;;;;;;;;6.00;99.91;100721.91;4960403;28;19918;-49
2023/03/11 03:55:12;;;;;;;;;;;;;;;6.03;100.00;100711.81;4967597;28;19919;-48
2023/03/11 03:57:38;;;;;;;;;;;;;;;5.95;100.00;100714.44;4967380;28;19921;-51
2023/03/11 04:00:08;;;;;;;;;;;;;;;5.91;100.00;100720.25;4966906;28;19978;-53
2023/03/11 04:02:39;;;;;;;;;;;;;;;5.95;100.00;100718.91;4968526;28;19944;-50
2023/03/11 04:05:05;;;;;;;;;;;;;;;5.99;100.00;100721.06;4974154;28;19919;-49
2023/03/11 04:07:32;;;;;;;;;;;;;;;6.04;100.00;100725.91;4966698;28;20364;-51
2023/03/11 04:09:58;;;;;;;;;;;;;;;6.02;100.00;100730.56;4966477;28;19914;-47
2023/03/11 04:12:24;;;;;;;;;;;;;;;6.06;100.00;100723.91;4962802;28;19922;-48
2023/03/11 04:14:49;;;;;;;;;;;;;;;5.92;100.00;100743.97;4971518;28;19985;-49
2023/03/11 04:17:16;;;;;;;;;;;;;;;5.83;100.00;100735.19;4968974;28;19914;-53
2023/03/11 04:19:42;;;;;;;;;;;;;;;5.97;100.00;100735.50;4970474;28;19941;-54
2023/03/11 04:22:09;;;;;;;;;;;;;;;5.95;100.00;100726.88;4972327;28;19989;-49
2023/03/11 04:24:34;;;;;;;;;;;;;;;5.93;100.00;100731.53;4972586;28;19937;-50
2023/03/11 04:27:00;;;;;;;;;;;;;;;5.70;100.00;100734.84;4968337;28;19918;-51
2023/03/11 04:29:26;;;;;;;;;;;;;;;5.83;100.00;100732.53;4958440;29;19918;-52
2023/03/11 04:31:52;;;;;;;;;;;;;;;5.90;100.00;100735.38;4965166;28;19992;-53
2023/03/11 04:34:18;;;;;;;;;;;;;;;5.85;100.00;100733.19;4965242;28;19915;-52
2023/03/11 04:36:44;;;;;;;;;;;;;;;5.85;100.00;100738.50;4978452;28;19918;-51
2023/03/11 04:39:13;;;;;;;;;;;;;;;5.88;100.00;100739.97;4979635;28;19932;-52
2023/03/11 04:41:42;;;;;;;;;;;;;;;5.63;100.00;100739.16;4970599;28;19921;-49
2023/03/11 04:44:10;;;;;;;;;;;;;;;5.82;100.00;100738.00;4976181;28;19953;-49
2023/03/11 04:46:36;;;;;;;;;;;;;;;5.96;100.00;100733.84;4996734;28;19911;-51
2023/03/11 04:49:04;;;;;;;;;;;;;;;5.76;100.00;100739.50;4977668;28;19918;-49
2023/03/11 04:51:30;;;;;;;;;;;;;;;5.84;100.00;100736.84;5000495;28;19965;-49
2023/03/11 04:53:55;;;;;;;;;;;;;;;5.87;100.00;100747.13;4973451;28;19921;-51
2023/03/11 04:56:21;;;;;;;;;;;;;;;5.73;100.00;100743.31;4970832;28;19914;-53
2023/03/11 04:58:47;;;;;;;;;;;;;;;5.77;100.00;100741.19;4973916;28;19914;-48
2023/03/11 05:01:13;;;;;;;;;;;;;;;5.83;100.00;100751.13;4990557;28;19914;-53
2023/03/11 05:03:39;;;;;;;;;;;;;;;5.66;99.63;100750.28;4974729;28;19914;-50
2023/03/11 05:06:05;;;;;;;;;;;;;;;5.85;100.00;100748.28;5002670;28;19921;-51
2023/03/11 05:08:30;;;;;;;;;;;;;;;5.88;100.00;100758.56;4987713;28;19986;-51
2023/03/11 05:10:56;;;;;;;;;;;;;;;5.77;100.00;100751.78;4977349;28;19922;-51
2023/03/11 05:13:23;;;;;;;;;;;;;;;5.83;99.98;100764.38;4979007;28;19945;-51
2023/03/11 05:15:50;;;;;;;;;;;;;;;5.72;100.00;100762.06;4994484;28;20004;-50
2023/03/11 05:18:16;;;;;;;;;;;;;;;5.60;100.00;100758.88;4989561;28;19922;-52
2023/03/11 05:20:42;;;;;;;;;;;;;;;5.38;100.00;100765.66;5004442;28;19922;-53
2023/03/11 05:23:09;;;;;;;;;;;;;;;5.64;100.00;100764.72;4995294;28;20001;-51
2023/03/11 05:25:35;;;;;;;;;;;;;;;5.54;100.00;100763.06;4983432;28;19914;-48
2023/03/11 05:28:02;;;;;;;;;;;;;;;5.54;100.00;100762.22;4977359;28;19922;-50
2023/03/11 05:30:29;;;;;;;;;;;;;;;5.56;100.00;100766.38;4971650;28;19918;-48
2023/03/11 05:32:56;;;;;;;;;;;;;;;5.59;100.00;100766.03;4993497;28;19921;-50
2023/03/11 05:35:23;;;;;;;;;;;;;;;5.56;100.00;100774.31;4983775;28;19981;-48
2023/03/11 05:37:48;;;;;;;;;;;;;;;5.57;100.00;100772.50;4993256;28;19947;-50
2023/03/11 05:40:15;;;;;;;;;;;;;;;5.56;100.00;100771.66;4992623;28;19915;-50
2023/03/11 05:42:41;;;;;;;;;;;;;;;5.52;100.00;100782.75;4986640;28;19914;-51
2023/03/11 05:45:08;;;;;;;;;;;;;;;5.51;100.00;100784.56;4994536;28;19914;-51
2023/03/11 05:47:36;;;;;;;;;;;;;;;5.48;100.00;100779.59;4985216;28;19977;-46
2023/03/11 05:50:02;;;;;;;;;;;;;;;5.54;100.00;100776.31;4980074;28;19914;-48
2023/03/11 05:52:31;;;;;;;;;;;;;;;5.53;100.00;100792.38;4977000;28;19922;-47
2023/03/11 05:54:57;;;;;;;;;;;;;;;5.46;100.00;100792.19;4987830;28;19922;-50
2023/03/11 05:57:26;;;;;;;;;;;;;;;5.53;100.00;100795.03;4977166;28;19914;-54
2023/03/11 05:59:51;;;;;;;;;;;;;;;5.52;100.00;100799.50;4987619;28;19914;-51
2023/03/11 06:02:19;;;;;;;;;;;;;;;5.48;100.00;100806.13;4963602;28;19914;-51
2023/03/11 06:04:45;;;;;;;;;;;;;;;5.43;100.00;100805.78;4991327;28;19933;-56
2023/03/11 06:07:11;;;;;;;;;;;;;;;5.31;100.00;100818.53;4988229;28;19981;-51
2023/03/11 06:09:37;;;;;;;;;;;;;;;5.39;100.00;100817.72;4991470;28;19926;-53
2023/03/11 06:12:06;;;;;;;;;;;;;;;5.45;100.00;100817.91;4973473;28;19913;-52
2023/03/11 06:14:45;;;;;;;;;;;;;;;5.38;100.00;100816.06;4980830;28;19928;-53
2023/03/11 06:17:11;;;;;;;;;;;;;;;5.37;100.00;100819.72;4969799;28;19914;-51
2023/03/11 06:19:37;;;;;;;;;;;;;;;5.38;100.00;100816.06;4995863;28;20260;-51
2023/03/11 06:22:03;;;;;;;;;;;;;;;5.38;100.00;100816.06;4965085;28;19941;-50
2023/03/11 06:24:28;;;;;;;;;;;;;;;5.44;100.00;100820.72;4989963;28;19953;-53
2023/03/11 06:26:55;;;;;;;;;;;;;;;5.54;100.00;100821.41;4976604;28;19914;-50
2023/03/11 06:29:25;;;;;;;;;;;;;;;5.56;100.00;100827.38;4981846;28;19918;-55
2023/03/11 06:31:51;;;;;;;;;;;;;;;5.51;100.00;100826.22;4979970;28;19915;-51
2023/03/11 06:34:17;;;;;;;;;;;;;;;5.57;100.00;100831.69;4981124;28;19952;-53
2023/03/11 06:36:43;;;;;;;;;;;;;;;5.64;99.82;100836.34;4975890;28;19993;-51
2023/03/11 06:39:11;;;;;;;;;;;;;;;5.59;100.00;100837.66;4966819;28;19914;-53
2023/03/11 06:41:36;;;;;;;;;;;;;;;5.59;100.00;100848.28;4988054;28;19914;-52
2023/03/11 06:44:04;;;;;;;;;;;;;;;5.69;100.00;100842.00;4991822;28;19952;-49
2023/03/11 06:46:30;;;;;;;;;;;;;;;5.81;99.79;100851.31;4985085;28;19914;-49
2023/03/11 06:48:56;;;;;;;;;;;;;;;5.89;99.33;100853.16;4997240;28;19925;-52
2023/03/11 06:51:22;;;;;;;;;;;;;;;5.87;99.30;100855.13;4968087;28;19945;-50
2023/03/11 06:53:50;;;;;;;;;;;;;;;5.84;100.00;100866.91;4965537;28;19914;-50
2023/03/11 06:56:17;;;;;;;;;;;;;;;5.74;99.66;100864.41;5000044;28;19914;-52
2023/03/11 06:58:47;;;;;;;;;;;;;;;5.95;99.58;100870.22;4996209;28;19922;-54
2023/03/11 07:01:15;;;;;;;;;;;;;;;6.05;99.32;100870.94;4985588;28;19973;-48
2023/03/11 07:03:41;;;;;;;;;;;;;;;6.08;98.51;100870.63;4992803;28;19922;-50
2023/03/11 07:06:10;;;;;;;;;;;;;;;6.14;98.32;100872.59;4990813;28;19972;-52
2023/03/11 07:08:36;;;;;;;;;;;;;;;6.06;97.69;100872.59;5009654;28;19946;-49
2023/03/11 07:11:06;;;;;;;;;;;;;;;6.20;98.26;100878.25;4989224;28;19921;-51
2023/03/11 07:13:32;;;;;;;;;;;;;;;6.29;98.40;100887.88;4983993;28;20349;-52
2023/03/11 07:16:06;;;;;;;;;;;;;;;6.34;98.04;100887.38;4983786;28;19914;-48
2023/03/11 07:18:32;;;;;;;;;;;;;;;6.38;97.93;100886.88;4989324;28;19944;-50
2023/03/11 07:20:58;;;;;;;;;;;;;;;6.40;98.07;100892.03;4992804;28;19918;-53
2023/03/11 07:23:23;;;;;;;;;;;;;;;6.43;99.04;100895.16;4989790;28;19921;-51
2023/03/11 07:25:50;;;;;;;;;;;;;;;6.48;98.49;100901.84;4994341;28;19914;-49
2023/03/11 07:28:16;;;;;;;;;;;;;;;6.44;98.76;100898.66;4985974;28;19914;-52
2023/03/11 07:30:43;;;;;;;;;;;;;;;6.56;98.08;100899.97;4985800;28;19936;-50
2023/03/11 07:33:09;;;;;;;;;;;;;;;6.73;96.22;100906.13;4985568;28;19925;-53
2023/03/11 07:35:34;;;;;;;;;;;;;;;6.77;96.35;100906.59;4987302;28;19914;-50
2023/03/11 07:38:01;;;;;;;;;;;;;;;6.85;95.52;100908.41;4987214;28;19980;-49
2023/03/11 07:40:26;;;;;;;;;;;;;;;6.88;95.40;100908.94;5010724;28;19930;-49
2023/03/11 07:42:51;;;;;;;;;;;;;;;6.96;94.56;100918.72;4987326;28;19914;-53
2023/03/11 07:45:19;;;;;;;;;;;;;;;7.24;93.90;100914.81;5003033;28;19914;-51
2023/03/11 07:47:45;;;;;;;;;;;;;;;7.12;93.41;100917.00;4986794;28;19914;-50
2023/03/11 07:50:10;;;;;;;;;;;;;;;7.24;93.43;100928.94;4988561;28;19922;-50
2023/03/11 07:52:35;;;;;;;;;;;;;;;7.40;92.58;100932.56;4983870;28;19921;-48
2023/03/11 07:55:01;;;;;;;;;;;;;;;7.49;92.13;100936.00;4987068;28;19914;-48
2023/03/11 07:57:26;;;;;;;;;;;;;;;7.55;89.61;100941.47;4998321;28;19939;-49
2023/03/11 07:59:51;;;;;;;;;;;;;;;7.71;88.91;100931.75;4988703;28;19914;-47
2023/03/11 08:02:17;;;;;;;;;;;;;;;7.92;86.30;100939.13;4983668;28;19982;-55
2023/03/11 08:04:42;;;;;;;;;;;;;;;8.11;84.61;100945.84;4982611;28;19958;-49
2023/03/11 08:07:08;;;;;;;;;;;;;;;8.23;85.56;100942.75;4983766;28;19922;-51
2023/03/11 08:09:33;;;;;;;;;;;;;;;8.28;82.20;100957.22;4982806;28;19965;-49
2023/03/11 08:11:59;;;;;;;;;;;;;;;8.51;81.00;100961.75;4990742;28;19940;-54
2023/03/11 08:14:24;;;;;;;;;;;;;;;8.60;81.09;100959.84;4986950;28;19926;-54
2023/03/11 08:16:50;;;;;;;;;;;;;;;8.67;79.83;100960.78;4986560;28;19921;-55
2023/03/11 08:19:15;;;;;;;;;;;;;;;8.85;81.24;100951.63;4988953;28;19922;-54
2023/03/11 08:21:40;;;;;;;;;;;;;;;9.08;78.64;100953.41;4982168;28;19914;-53
2023/03/11 08:24:06;;;;;;;;;;;;;;;9.21;77.06;100950.91;4984219;28;20729;-50
2023/03/11 08:26:31;;;;;;;;;;;;;;;9.26;74.68;100958.38;4982828;28;19918;-51
2023/03/11 08:28:57;;;;;;;;;;;;;;;8.96;75.34;100953.03;4984806;28;19925;-52
2023/03/11 08:31:24;;;;;;;;;;;;;;;9.30;73.25;100965.84;4984487;28;19914;-51
2023/03/11 08:33:50;;;;;;;;;;;;;;;9.38;73.68;100962.25;4986885;28;20007;-51
2023/03/11 08:36:15;;;;;;;;;;;;;;;9.64;74.66;100963.63;4989135;28;19919;-55
2023/03/11 08:38:41;;;;;;;;;;;;;;;9.46;76.06;100962.16;4974468;28;19914;-50
2023/03/11 08:41:06;;;;;;;;;;;;;;;9.78;73.17;100961.94;4984060;28;19941;-50
2023/03/11 08:43:31;;;;;;;;;;;;;;;10.09;73.13;100976.88;4984507;28;19914;-48
2023/03/11 08:45:59;;;;;;;;;;;;;;;9.53;73.25;100982.75;4991315;28;19914;-51
2023/03/11 08:48:25;;;;;;;;;;;;;;;9.93;74.36;100979.78;4984869;28;19977;-49
2023/03/11 08:50:50;;;;;;;;;;;;;;;10.66;71.91;100985.09;4985718;28;19923;-52
2023/03/11 08:53:15;;;;;;;;;;;;;;;11.10;69.04;100990.38;4983251;28;19914;-48
2023/03/11 08:55:41;;;;;;;;;;;;;;;11.56;68.35;100997.88;4978084;28;19921;-53
2023/03/11 08:58:06;;;;;;;;;;;;;;;11.95;67.77;100992.88;4987349;28;19926;-51
2023/03/11 09:00:32;;;;;;;;;;;;;;;11.87;67.10;100993.88;4994011;28;19914;-52
2023/03/11 09:02:58;;;;;;;;;;;;;;;12.35;65.23;100997.53;4980574;28;19914;-51
2023/03/11 09:05:23;;;;;;;;;;;;;;;12.75;63.09;101011.00;4985150;28;19914;-50
2023/03/11 09:07:49;;;;;;;;;;;;;;;13.51;60.75;101001.88;4988897;28;19949;-49
2023/03/11 09:10:15;;;;;;;;;;;;;;;13.50;58.16;101011.78;4979702;28;19915;-51
2023/03/11 09:12:41;;;;;;;;;;;;;;;14.05;61.72;101008.69;4964207;28;19952;-50
2023/03/11 09:15:06;;;;;;;;;;;;;;;14.54;60.88;101018.16;4980631;28;19921;-52
2023/03/11 09:17:31;;;;;;;;;;;;;;;14.96;56.66;101023.84;4984022;28;19954;-52
2023/03/11 09:19:57;;;;;;;;;;;;;;;15.02;56.25;101028.38;4983468;28;19918;-52
2023/03/11 09:22:22;;;;;;;;;;;;;;;16.19;51.50;101028.56;4982766;28;19914;-52
2023/03/11 09:24:48;;;;;;;;;;;;;;;16.90;51.65;101032.50;4988343;28;19945;-53
2023/03/11 09:27:14;;;;;;;;;;;;;;;17.66;49.03;101033.69;4981832;28;19929;-50
2023/03/11 09:29:40;;;;;;;;;;;;;;;18.63;45.77;101021.19;4981646;28;19957;-53
2023/03/11 09:32:06;;;;;;;;;;;;;;;19.22;44.86;101024.56;4987466;28;19914;-50
2023/03/11 09:34:31;;;;;;;;;;;;;;;18.98;45.22;101030.19;4984148;28;19921;-50
2023/03/11 09:36:57;;;;;;;;;;;;;;;20.00;42.13;101041.84;4983653;28;19922;-48
2023/03/11 09:39:22;;;;;;;;;;;;;;;19.83;40.89;101037.28;4980464;28;19936;-51
2023/03/11 09:42:01;;;;;;;;;;;;;;;18.95;42.34;101037.94;4984966;28;19993;-52
2023/03/11 09:44:53;;;;;;;;;;;;;;;19.57;41.28;101034.25;4980330;28;19940;-48
2023/03/11 09:47:37;;;;;;;;;;;;;;;20.22;39.94;101027.44;4977418;28;19918;-50
2023/03/11 09:50:21;;;;;;;;;;;;;;;19.75;39.05;101029.59;4983541;28;19918;-53
2023/03/11 09:52:46;;;;;;;;;;;;;;;20.27;37.74;101030.19;4979226;28;19914;-53
2023/03/11 09:55:24;;;;;;;;;;;;;;;20.65;38.60;101036.53;4980930;28;19994;-54
2023/03/11 09:57:51;;;;;;;;;;;;;;;21.13;37.59;101050.25;4980242;28;19920;-53
2023/03/11 10:00:19;;;;;;;;;;;;;;;21.26;36.48;101048.16;4986989;28;20020;-51
2023/03/11 10:02:45;;;;;;;;;;;;;;;20.35;38.40;101037.91;4982698;28;19915;-56
2023/03/11 10:05:25;;;;;;;;;;;;;;;21.30;35.98;101052.81;4985539;28;19914;-53
2023/03/11 10:08:11;;;;;;;;;;;;;;;22.27;35.01;101058.13;4980966;28;19914;-53
2023/03/11 10:10:43;;;;;;;;;;;;;;;22.91;34.62;101058.75;4981365;28;19918;-52
2023/03/11 10:13:22;;;;;;;;;;;;;;;22.81;33.98;101059.56;4986400;28;19940;-52
2023/03/11 10:15:51;;;;;;;;;;;;;;;23.08;33.26;101058.47;4983986;28;19928;-57
2023/03/11 10:18:35;;;;;;;;;;;;;;;22.40;34.34;101060.34;4986029;28;19922;-54
2023/03/11 10:21:00;;;;;;;;;;;;;;;22.13;34.21;101066.00;4984154;28;19973;-51
2023/03/11 10:23:28;;;;;;;;;;;;;;;20.02;35.48;101053.28;4983329;28;19918;-54
2023/03/11 10:26:12;;;;;;;;;;;;;;;20.22;37.32;101054.59;4985326;28;19918;-54
2023/03/11 10:28:41;;;;;;;;;;;;;;;19.66;36.77;101055.53;4979019;28;19922;-54
2023/03/11 10:31:19;;;;;;;;;;;;;;;19.85;35.89;101059.59;4982840;28;19914;-54
2023/03/11 10:33:56;;;;;;;;;;;;;;;19.78;35.36;101062.47;4987618;28;19914;-54
2023/03/11 10:36:25;;;;;;;;;;;;;;;19.42;36.67;101058.47;4981623;28;19925;-52
2023/03/11 10:38:52;;;;;;;;;;;;;;;20.40;35.35;101064.25;4985470;28;19921;-53
2023/03/11 10:41:18;;;;;;;;;;;;;;;20.43;36.33;101059.16;4988413;28;19925;-54
2023/03/11 10:43:50;;;;;;;;;;;;;;;20.51;34.94;101063.31;4981074;28;19915;-51
2023/03/11 10:46:22;;;;;;;;;;;;;;;19.55;36.81;101058.09;4984276;28;19922;-54
2023/03/11 10:48:47;;;;;;;;;;;;;;;18.38;37.24;101045.94;4983252;28;19922;-52
2023/03/11 10:51:21;;;;;;;;;;;;;;;18.62;35.60;101045.81;4988149;28;19914;-53
2023/03/11 10:53:48;;;;;;;;;;;;;;;19.37;35.67;101051.06;4981449;28;19921;-52
2023/03/11 10:56:24;;;;;;;;;;;;;;;19.49;34.95;101053.69;4983637;28;19944;-49
2023/03/11 10:58:50;;;;;;;;;;;;;;;20.66;35.12;101054.47;4986110;28;19914;-49
2023/03/11 11:01:17;;;;;;;;;;;;;;;20.92;34.94;101057.44;4983158;28;19936;-53
2023/03/11 11:03:44;;;;;;;;;;;;;;;20.61;34.87;101054.44;4983067;28;19929;-53
2023/03/11 11:06:27;;;;;;;;;;;;;;;20.21;33.05;101053.78;4980975;28;19961;-54
2023/03/11 11:09:16;;;;;;;;;;;;;;;19.71;34.68;101055.59;4984078;28;19924;-49
2023/03/11 11:11:42;;;;;;;;;;;;;;;19.38;34.22;101057.34;4988636;28;19914;-53
2023/03/11 11:14:09;;;;;;;;;;;;;;;19.64;33.72;101055.78;4982542;28;19914;-51
2023/03/11 11:16:34;;;;;;;;;;;;;;;19.17;34.78;101057.03;4985992;28;19914;-50
2023/03/11 11:19:06;;;;;;;;;;;;;;;19.68;34.20;101056.91;4982852;28;19946;-50
2023/03/11 11:21:51;;;;;;;;;;;;;;;20.18;33.75;101055.09;4979091;28;19922;-50
2023/03/11 11:24:23;;;;;;;;;;;;;;;20.87;32.74;101051.97;4981623;28;19913;-53
2023/03/11 11:27:03;;;;;;;;;;;;;;;22.65;30.49;101055.22;4983004;28;19949;-51
2023/03/11 11:29:30;;;;;;;;;;;;;;;22.94;30.14;101065.56;4986007;28;19945;-53
2023/03/11 11:32:13;;;;;;;;;;;;;;;22.45;30.49;101071.25;4984040;28;19922;-52
2023/03/11 11:34:38;;;;;;;;;;;;;;;23.46;29.74;101071.78;4983758;28;19913;-50
2023/03/11 11:37:04;;;;;;;;;;;;;;;23.74;29.42;101073.06;4983776;28;19915;-51
2023/03/11 11:39:50;;;;;;;;;;;;;;;23.69;29.12;101073.09;4981700;28;19921;-53
2023/03/11 11:42:17;;;;;;;;;;;;;;;24.29;28.58;101082.41;4986338;28;19925;-51
2023/03/11 11:44:45;;;;;;;;;;;;;;;24.62;29.29;101080.81;4982722;28;19985;-51
2023/03/11 11:47:31;;;;;;;;;;;;;;;26.34;27.09;101083.38;4986565;28;19914;-54
2023/03/11 11:49:59;;;;;;;;;;;;;;;27.49;25.92;101077.59;4981116;28;20314;-53
2023/03/11 11:52:51;;;;;;;;;;;;;;;28.06;25.61;101075.63;4986847;28;19950;-50
2023/03/11 11:55:19;;;;;;;;;;;;;;;27.20;25.09;101084.19;4986226;28;20005;-54
2023/03/11 11:57:45;;;;;;;;;;;;;;;27.50;25.27;101075.69;4991290;28;19921;-55
2023/03/11 12:00:37;;;;;;;;;;;;;;;28.77;24.57;101080.59;4985055;28;19914;-52
2023/03/11 12:03:22;;;;;;;;;;;;;;;28.42;24.45;101074.84;4989915;28;19922;-52
2023/03/11 12:05:53;;;;;;;;;;;;;;;27.85;24.66;101069.78;4981478;28;19928;-53
2023/03/11 12:08:25;;;;;;;;;;;;;;;28.88;24.19;101074.88;4990946;28;19981;-52
2023/03/11 12:11:00;;;;;;;;;;;;;;;26.62;24.36;101074.47;4981764;28;19914;-53
2023/03/11 12:13:32;;;;;;;;;;;;;;;25.91;24.55;101070.53;4984648;28;19914;-52
2023/03/11 12:16:16;;;;;;;;;;;;;;;25.46;25.46;101076.22;4983913;28;19918;-52
2023/03/11 12:18:48;;;;;;;;;;;;;;;26.00;24.78;101073.41;4986017;28;19910;-53
2023/03/11 12:21:28;;;;;;;;;;;;;;;26.79;24.18;101075.84;4987819;28;19913;-55
2023/03/11 12:24:12;;;;;;;;;;;;;;;28.55;23.81;101075.09;4990440;28;19932;-53
2023/03/11 12:26:38;;;;;;;;;;;;;;;28.82;23.09;101070.59;4992959;28;19946;-51
2023/03/11 12:29:13;;;;;;;;;;;;;;;29.98;22.92;101070.72;4989525;28;19940;-51
2023/03/11 12:31:39;;;;;;;;;;;;;;;30.46;22.27;101075.34;4985920;28;19985;-53
2023/03/11 12:34:06;;;;;;;;;;;;;;;31.40;21.17;101081.28;4988114;28;19918;-54
2023/03/11 12:36:38;;;;;;;;;;;;;;;30.57;20.51;101075.81;4984077;28;19929;-55
2023/03/11 12:39:05;;;;;;;;;;;;;;;28.45;21.13;101074.22;4982410;28;19910;-55
2023/03/11 12:41:40;;;;;;;;;;;;;;;27.96;21.37;101067.63;4983115;28;20002;-53
2023/03/11 12:44:30;;;;;;;;;;;;;;;28.22;21.90;101050.59;4989415;28;19918;-53